sensor_id;sensor_type;location;lat;lon;timestamp;temperature;humidity
7196;DHT22;3639;51.308;5.624;2023-08-30T00:00:11;14.00;99.90
7196;DHT22;3639;51.308;5.624;2023-08-30T00:02:37;14.10;99.90
7196;DHT22;3639;51.308;5.624;2023-08-30T00:05:03;14.10;99.90
7196;DHT22;3639;51.308;5.624;2023-08-30T00:07:29;14.00;99.90
7196;DHT22;3639;51.308;5.624;2023-08-30T00:09:57;14.00;99.90
7196;DHT22;3639;51.308;5.624;2023-08-30T00:12:23;14.00;99.90
7196;DHT22;3639;51.308;5.624;2023-08-30T00:14:50;14.00;99.90
7196;DHT22;3639;51.308;5.624;2023-08-30T00:17:15;14.00;99.90
7196;DHT22;3639;51.308;5.624;2023-08-30T00:19:41;14.00;99.90
7196;DHT22;3639;51.308;5.624;2023-08-30T00:22:07;14.00;99.90
7196;DHT22;3639;51.308;5.624;2023-08-30T00:24:35;14.00;99.90
7196;DHT22;3639;51.308;5.624;2023-08-30T00:27:02;14.00;99.90
7196;DHT22;3639;51.308;5.624;2023-08-30T00:29:28;14.00;99.90
7196;DHT22;3639;51.308;5.624;2023-08-30T00:31:54;14.00;99.90
7196;DHT22;3639;51.308;5.624;2023-08-30T00:34:20;14.00;99.90
7196;DHT22;3639;51.308;5.624;2023-08-30T00:36:45;14.00;99.90
7196;DHT22;3639;51.308;5.624;2023-08-30T00:39:11;14.00;99.90
7196;DHT22;3639;51.308;5.624;2023-08-30T00:41:36;14.10;99.90
7196;DHT22;3639;51.308;5.624;2023-08-30T00:44:02;14.10;99.90
7196;DHT22;3639;51.308;5.624;2023-08-30T00:46:28;14.10;99.90
7196;DHT22;3639;51.308;5.624;2023-08-30T00:48:54;14.10;99.90
7196;DHT22;3639;51.308;5.624;2023-08-30T00:51:20;14.10;99.90
7196;DHT22;3639;51.308;5.624;2023-08-30T00:53:47;14.00;99.90
7196;DHT22;3639;51.308;5.624;2023-08-30T00:56:13;14.10;99.90
7196;DHT22;3639;51.308;5.624;2023-08-30T00:58:39;14.10;99.90
7196;DHT22;3639;51.308;5.624;2023-08-30T01:01:05;14.10;99.90
7196;DHT22;3639;51.308;5.624;2023-08-30T01:03:35;14.00;99.90
7196;DHT22;3639;51.308;5.624;2023-08-30T01:06:01;14.00;99.90
7196;DHT22;3639;51.308;5.624;2023-08-30T01:08:30;14.00;99.90
7196;DHT22;3639;51.308;5.624;2023-08-30T01:14:02;13.90;99.90
7196;DHT22;3639;51.308;5.624;2023-08-30T01:16:30;13.80;99.90
7196;DHT22;3639;51.308;5.624;2023-08-30T01:18:59;13.70;99.90
7196;DHT22;3639;51.308;5.624;2023-08-30T01:23:58;13.50;99.90
7196;DHT22;3639;51.308;5.624;2023-08-30T01:27:00;13.40;99.90
7196;DHT22;3639;51.308;5.624;2023-08-30T01:29:27;13.30;99.90
7196;DHT22;3639;51.308;5.624;2023-08-30T01:31:53;13.30;99.90
7196;DHT22;3639;51.308;5.624;2023-08-30T01:34:19;13.20;99.90
7196;DHT22;3639;51.308;5.624;2023-08-30T01:36:46;13.10;99.90
7196;DHT22;3639;51.308;5.624;2023-08-30T01:39:14;13.10;99.90
7196;DHT22;3639;51.308;5.624;2023-08-30T01:41:41;13.10;99.90
7196;DHT22;3639;51.308;5.624;2023-08-30T01:44:07;13.00;99.90
7196;DHT22;3639;51.308;5.624;2023-08-30T01:46:36;12.90;99.90
7196;DHT22;3639;51.308;5.624;2023-08-30T01:49:03;12.90;99.90
7196;DHT22;3639;51.308;5.624;2023-08-30T01:51:29;12.80;99.90
7196;DHT22;3639;51.308;5.624;2023-08-30T01:53:57;12.80;99.90
7196;DHT22;3639;51.308;5.624;2023-08-30T01:56:23;12.80;99.90
7196;DHT22;3639;51.308;5.624;2023-08-30T01:58:49;12.80;99.90
7196;DHT22;3639;51.308;5.624;2023-08-30T02:01:15;12.80;99.90
7196;DHT22;3639;51.308;5.624;2023-08-30T02:03:43;12.80;99.90
7196;DHT22;3639;51.308;5.624;2023-08-30T02:06:28;12.80;99.90
7196;DHT22;3639;51.308;5.624;2023-08-30T02:09:17;12.90;99.90
7196;DHT22;3639;51.308;5.624;2023-08-30T02:11:47;12.90;99.90
7196;DHT22;3639;51.308;5.624;2023-08-30T02:14:14;13.10;99.90
7196;DHT22;3639;51.308;5.624;2023-08-30T02:16:44;13.10;99.90
7196;DHT22;3639;51.308;5.624;2023-08-30T02:19:11;13.20;99.90
7196;DHT22;3639;51.308;5.624;2023-08-30T02:21:40;13.30;99.90
7196;DHT22;3639;51.308;5.624;2023-08-30T02:24:06;13.30;99.90
7196;DHT22;3639;51.308;5.624;2023-08-30T02:26:31;13.30;99.90
7196;DHT22;3639;51.308;5.624;2023-08-30T02:28:57;13.30;99.90
7196;DHT22;3639;51.308;5.624;2023-08-30T02:31:23;13.40;99.90
7196;DHT22;3639;51.308;5.624;2023-08-30T02:33:48;13.40;99.90
7196;DHT22;3639;51.308;5.624;2023-08-30T02:36:14;13.40;99.90
7196;DHT22;3639;51.308;5.624;2023-08-30T02:38:39;13.30;99.90
7196;DHT22;3639;51.308;5.624;2023-08-30T02:41:05;13.40;99.90
7196;DHT22;3639;51.308;5.624;2023-08-30T02:43:30;13.40;99.90
7196;DHT22;3639;51.308;5.624;2023-08-30T02:45:56;13.40;99.90
7196;DHT22;3639;51.308;5.624;2023-08-30T02:48:22;13.40;99.90
7196;DHT22;3639;51.308;5.624;2023-08-30T02:50:47;13.40;99.90
7196;DHT22;3639;51.308;5.624;2023-08-30T02:53:13;13.50;99.90
7196;DHT22;3639;51.308;5.624;2023-08-30T02:55:39;13.40;99.90
7196;DHT22;3639;51.308;5.624;2023-08-30T02:58:04;13.40;99.90
7196;DHT22;3639;51.308;5.624;2023-08-30T03:00:30;13.40;99.90
7196;DHT22;3639;51.308;5.624;2023-08-30T03:02:55;13.40;99.90
7196;DHT22;3639;51.308;5.624;2023-08-30T03:05:21;13.40;99.90
7196;DHT22;3639;51.308;5.624;2023-08-30T03:07:47;13.40;99.90
7196;DHT22;3639;51.308;5.624;2023-08-30T03:10:12;13.40;99.90
7196;DHT22;3639;51.308;5.624;2023-08-30T03:12:38;13.40;99.90
7196;DHT22;3639;51.308;5.624;2023-08-30T03:15:04;13.40;99.90
7196;DHT22;3639;51.308;5.624;2023-08-30T03:17:30;13.40;99.90
7196;DHT22;3639;51.308;5.624;2023-08-30T03:19:56;13.40;99.90
7196;DHT22;3639;51.308;5.624;2023-08-30T03:22:22;13.40;99.90
7196;DHT22;3639;51.308;5.624;2023-08-30T03:24:47;13.40;99.90
7196;DHT22;3639;51.308;5.624;2023-08-30T03:27:14;13.40;99.90
7196;DHT22;3639;51.308;5.624;2023-08-30T03:29:40;13.50;99.90
7196;DHT22;3639;51.308;5.624;2023-08-30T03:32:06;13.40;99.90
7196;DHT22;3639;51.308;5.624;2023-08-30T03:34:31;13.40;99.90
7196;DHT22;3639;51.308;5.624;2023-08-30T03:36:57;13.40;99.90
7196;DHT22;3639;51.308;5.624;2023-08-30T03:39:22;13.40;99.90
7196;DHT22;3639;51.308;5.624;2023-08-30T03:41:50;13.40;99.90
7196;DHT22;3639;51.308;5.624;2023-08-30T03:44:15;13.40;99.90
7196;DHT22;3639;51.308;5.624;2023-08-30T03:46:41;13.40;99.90
7196;DHT22;3639;51.308;5.624;2023-08-30T03:49:07;13.40;99.90
7196;DHT22;3639;51.308;5.624;2023-08-30T03:51:32;13.40;99.90
7196;DHT22;3639;51.308;5.624;2023-08-30T03:53:58;13.50;99.90
7196;DHT22;3639;51.308;5.624;2023-08-30T03:56:24;13.50;99.90
7196;DHT22;3639;51.308;5.624;2023-08-30T03:58:49;13.50;99.90
7196;DHT22;3639;51.308;5.624;2023-08-30T04:01:15;13.50;99.90
7196;DHT22;3639;51.308;5.624;2023-08-30T04:03:40;13.50;99.90
7196;DHT22;3639;51.308;5.624;2023-08-30T04:06:06;13.50;99.90
7196;DHT22;3639;51.308;5.624;2023-08-30T04:08:32;13.50;99.90
7196;DHT22;3639;51.308;5.624;2023-08-30T04:10:58;13.40;99.90
7196;DHT22;3639;51.308;5.624;2023-08-30T04:13:23;13.40;99.90
7196;DHT22;3639;51.308;5.624;2023-08-30T04:15:49;13.30;99.90
7196;DHT22;3639;51.308;5.624;2023-08-30T04:18:15;13.40;99.90
7196;DHT22;3639;51.308;5.624;2023-08-30T04:20:47;13.40;99.90
7196;DHT22;3639;51.308;5.624;2023-08-30T04:23:13;13.30;99.90
7196;DHT22;3639;51.308;5.624;2023-08-30T04:25:39;13.30;99.90
7196;DHT22;3639;51.308;5.624;2023-08-30T04:28:04;13.30;99.90
7196;DHT22;3639;51.308;5.624;2023-08-30T04:30:30;13.30;99.90
7196;DHT22;3639;51.308;5.624;2023-08-30T04:32:56;13.20;99.90
7196;DHT22;3639;51.308;5.624;2023-08-30T04:35:22;13.10;99.90
7196;DHT22;3639;51.308;5.624;2023-08-30T04:37:47;13.10;99.90
7196;DHT22;3639;51.308;5.624;2023-08-30T04:40:13;13.00;99.90
7196;DHT22;3639;51.308;5.624;2023-08-30T04:42:39;13.00;99.90
7196;DHT22;3639;51.308;5.624;2023-08-30T04:45:06;13.00;99.90
7196;DHT22;3639;51.308;5.624;2023-08-30T04:47:33;13.00;99.90
7196;DHT22;3639;51.308;5.624;2023-08-30T04:49:59;13.00;99.90
7196;DHT22;3639;51.308;5.624;2023-08-30T04:52:24;13.00;99.90
7196;DHT22;3639;51.308;5.624;2023-08-30T04:54:50;13.00;99.90
7196;DHT22;3639;51.308;5.624;2023-08-30T04:57:16;13.00;99.90
7196;DHT22;3639;51.308;5.624;2023-08-30T04:59:44;13.00;99.90
7196;DHT22;3639;51.308;5.624;2023-08-30T05:02:10;13.00;99.90
7196;DHT22;3639;51.308;5.624;2023-08-30T05:04:36;13.00;99.90
7196;DHT22;3639;51.308;5.624;2023-08-30T05:07:02;13.00;99.90
7196;DHT22;3639;51.308;5.624;2023-08-30T05:09:29;13.00;99.90
7196;DHT22;3639;51.308;5.624;2023-08-30T05:11:55;13.10;99.90
7196;DHT22;3639;51.308;5.624;2023-08-30T05:14:20;13.10;99.90
7196;DHT22;3639;51.308;5.624;2023-08-30T05:16:46;13.20;99.90
7196;DHT22;3639;51.308;5.624;2023-08-30T05:19:12;13.20;99.90
7196;DHT22;3639;51.308;5.624;2023-08-30T05:21:37;13.20;99.90
7196;DHT22;3639;51.308;5.624;2023-08-30T05:24:04;13.40;99.90
7196;DHT22;3639;51.308;5.624;2023-08-30T05:26:31;13.40;99.90
7196;DHT22;3639;51.308;5.624;2023-08-30T05:28:56;13.40;99.90
7196;DHT22;3639;51.308;5.624;2023-08-30T05:31:22;13.50;99.90
7196;DHT22;3639;51.308;5.624;2023-08-30T05:33:47;13.50;99.90
7196;DHT22;3639;51.308;5.624;2023-08-30T05:36:13;13.60;99.90
7196;DHT22;3639;51.308;5.624;2023-08-30T05:38:39;13.70;99.90
7196;DHT22;3639;51.308;5.624;2023-08-30T05:41:04;13.80;99.90
7196;DHT22;3639;51.308;5.624;2023-08-30T05:43:31;13.80;99.90
7196;DHT22;3639;51.308;5.624;2023-08-30T05:45:57;13.90;99.90
7196;DHT22;3639;51.308;5.624;2023-08-30T05:48:27;14.00;99.90
7196;DHT22;3639;51.308;5.624;2023-08-30T05:50:53;14.10;99.90
7196;DHT22;3639;51.308;5.624;2023-08-30T05:53:18;14.20;99.90
7196;DHT22;3639;51.308;5.624;2023-08-30T05:55:44;14.20;99.90
7196;DHT22;3639;51.308;5.624;2023-08-30T05:58:09;14.30;99.90
7196;DHT22;3639;51.308;5.624;2023-08-30T06:00:35;14.30;99.90
7196;DHT22;3639;51.308;5.624;2023-08-30T06:03:01;14.30;99.90
7196;DHT22;3639;51.308;5.624;2023-08-30T06:05:26;14.40;99.90
7196;DHT22;3639;51.308;5.624;2023-08-30T06:07:52;14.40;99.90
7196;DHT22;3639;51.308;5.624;2023-08-30T06:10:19;14.40;99.90
7196;DHT22;3639;51.308;5.624;2023-08-30T06:12:45;14.50;99.90
7196;DHT22;3639;51.308;5.624;2023-08-30T06:15:10;14.60;99.90
7196;DHT22;3639;51.308;5.624;2023-08-30T06:17:36;14.60;99.90
7196;DHT22;3639;51.308;5.624;2023-08-30T06:20:01;14.70;99.90
7196;DHT22;3639;51.308;5.624;2023-08-30T06:22:28;14.80;99.90
7196;DHT22;3639;51.308;5.624;2023-08-30T06:24:53;14.80;99.90
7196;DHT22;3639;51.308;5.624;2023-08-30T06:27:19;14.90;99.90
7196;DHT22;3639;51.308;5.624;2023-08-30T06:29:45;14.90;99.90
7196;DHT22;3639;51.308;5.624;2023-08-30T06:32:11;15.00;99.90
7196;DHT22;3639;51.308;5.624;2023-08-30T06:34:36;15.00;99.90
7196;DHT22;3639;51.308;5.624;2023-08-30T06:37:02;15.10;99.90
7196;DHT22;3639;51.308;5.624;2023-08-30T06:39:35;15.10;99.90
7196;DHT22;3639;51.308;5.624;2023-08-30T06:42:05;15.20;99.90
7196;DHT22;3639;51.308;5.624;2023-08-30T06:44:30;15.30;99.90
7196;DHT22;3639;51.308;5.624;2023-08-30T06:46:59;15.40;99.90
7196;DHT22;3639;51.308;5.624;2023-08-30T06:49:24;15.40;99.90
7196;DHT22;3639;51.308;5.624;2023-08-30T06:51:50;15.30;99.90
7196;DHT22;3639;51.308;5.624;2023-08-30T06:54:16;15.30;99.90
7196;DHT22;3639;51.308;5.624;2023-08-30T06:56:57;15.30;99.90
7196;DHT22;3639;51.308;5.624;2023-08-30T06:59:23;15.30;99.90
7196;DHT22;3639;51.308;5.624;2023-08-30T07:01:49;15.30;99.90
7196;DHT22;3639;51.308;5.624;2023-08-30T07:04:15;15.30;99.90
7196;DHT22;3639;51.308;5.624;2023-08-30T07:06:40;15.20;99.90
7196;DHT22;3639;51.308;5.624;2023-08-30T07:09:06;15.10;99.90
7196;DHT22;3639;51.308;5.624;2023-08-30T07:11:32;15.10;99.90
7196;DHT22;3639;51.308;5.624;2023-08-30T07:13:57;15.00;99.90
7196;DHT22;3639;51.308;5.624;2023-08-30T07:16:23;15.00;99.90
7196;DHT22;3639;51.308;5.624;2023-08-30T07:18:48;14.90;99.90
7196;DHT22;3639;51.308;5.624;2023-08-30T07:21:14;14.90;99.90
7196;DHT22;3639;51.308;5.624;2023-08-30T07:23:39;14.80;99.90
7196;DHT22;3639;51.308;5.624;2023-08-30T07:26:05;14.70;99.90
7196;DHT22;3639;51.308;5.624;2023-08-30T07:28:30;14.70;99.90
7196;DHT22;3639;51.308;5.624;2023-08-30T07:31:05;14.70;99.90
7196;DHT22;3639;51.308;5.624;2023-08-30T07:33:31;14.60;99.90
7196;DHT22;3639;51.308;5.624;2023-08-30T07:35:58;14.50;99.90
7196;DHT22;3639;51.308;5.624;2023-08-30T07:38:23;14.50;99.90
7196;DHT22;3639;51.308;5.624;2023-08-30T07:40:49;14.60;99.90
7196;DHT22;3639;51.308;5.624;2023-08-30T07:43:14;14.60;99.90
7196;DHT22;3639;51.308;5.624;2023-08-30T07:45:40;14.60;99.90
7196;DHT22;3639;51.308;5.624;2023-08-30T07:48:06;14.60;99.90
7196;DHT22;3639;51.308;5.624;2023-08-30T07:50:31;14.60;99.90
7196;DHT22;3639;51.308;5.624;2023-08-30T07:52:57;14.60;99.90
7196;DHT22;3639;51.308;5.624;2023-08-30T07:55:23;14.60;99.90
7196;DHT22;3639;51.308;5.624;2023-08-30T07:57:48;14.60;99.90
7196;DHT22;3639;51.308;5.624;2023-08-30T08:00:14;14.60;99.90
7196;DHT22;3639;51.308;5.624;2023-08-30T08:02:40;14.60;99.90
7196;DHT22;3639;51.308;5.624;2023-08-30T08:05:06;14.60;99.90
7196;DHT22;3639;51.308;5.624;2023-08-30T08:07:32;14.60;99.90
7196;DHT22;3639;51.308;5.624;2023-08-30T08:09:58;14.60;99.90
7196;DHT22;3639;51.308;5.624;2023-08-30T08:12:23;14.60;99.90
7196;DHT22;3639;51.308;5.624;2023-08-30T08:14:49;14.60;99.90
7196;DHT22;3639;51.308;5.624;2023-08-30T08:17:14;14.60;99.90
7196;DHT22;3639;51.308;5.624;2023-08-30T08:19:40;14.60;99.90
7196;DHT22;3639;51.308;5.624;2023-08-30T08:22:08;14.60;99.90
7196;DHT22;3639;51.308;5.624;2023-08-30T08:24:33;14.50;99.90
7196;DHT22;3639;51.308;5.624;2023-08-30T08:26:59;14.50;99.90
7196;DHT22;3639;51.308;5.624;2023-08-30T08:29:27;14.50;99.90
7196;DHT22;3639;51.308;5.624;2023-08-30T08:31:53;14.50;99.90
7196;DHT22;3639;51.308;5.624;2023-08-30T08:34:19;14.40;99.90
7196;DHT22;3639;51.308;5.624;2023-08-30T08:36:45;14.40;99.90
7196;DHT22;3639;51.308;5.624;2023-08-30T08:39:10;14.30;99.90
7196;DHT22;3639;51.308;5.624;2023-08-30T08:41:43;14.30;99.90
7196;DHT22;3639;51.308;5.624;2023-08-30T08:44:09;14.30;99.90
7196;DHT22;3639;51.308;5.624;2023-08-30T08:46:36;14.40;99.90
7196;DHT22;3639;51.308;5.624;2023-08-30T08:51:34;14.50;99.90
7196;DHT22;3639;51.308;5.624;2023-08-30T08:54:03;14.60;99.90
7196;DHT22;3639;51.308;5.624;2023-08-30T08:56:30;14.70;99.90
7196;DHT22;3639;51.308;5.624;2023-08-30T08:58:56;14.70;99.90
7196;DHT22;3639;51.308;5.624;2023-08-30T09:01:23;14.90;99.90
7196;DHT22;3639;51.308;5.624;2023-08-30T09:03:50;14.90;99.90
7196;DHT22;3639;51.308;5.624;2023-08-30T09:06:16;14.90;99.90
7196;DHT22;3639;51.308;5.624;2023-08-30T09:08:41;15.00;99.90
7196;DHT22;3639;51.308;5.624;2023-08-30T09:11:07;15.10;99.90
7196;DHT22;3639;51.308;5.624;2023-08-30T09:13:33;15.20;99.90
7196;DHT22;3639;51.308;5.624;2023-08-30T09:15:59;15.20;99.90
7196;DHT22;3639;51.308;5.624;2023-08-30T09:18:25;15.40;99.90
7196;DHT22;3639;51.308;5.624;2023-08-30T09:20:53;15.40;99.90
7196;DHT22;3639;51.308;5.624;2023-08-30T09:23:20;15.30;99.90
7196;DHT22;3639;51.308;5.624;2023-08-30T09:25:46;15.20;99.90
7196;DHT22;3639;51.308;5.624;2023-08-30T09:28:12;15.10;99.90
7196;DHT22;3639;51.308;5.624;2023-08-30T09:30:39;15.10;99.90
7196;DHT22;3639;51.308;5.624;2023-08-30T09:33:05;15.00;99.90
7196;DHT22;3639;51.308;5.624;2023-08-30T09:35:32;15.10;99.90
7196;DHT22;3639;51.308;5.624;2023-08-30T09:37:57;15.10;99.90
7196;DHT22;3639;51.308;5.624;2023-08-30T09:40:23;15.00;99.90
7196;DHT22;3639;51.308;5.624;2023-08-30T09:42:48;15.00;99.90
7196;DHT22;3639;51.308;5.624;2023-08-30T09:45:33;15.10;99.90
7196;DHT22;3639;51.308;5.624;2023-08-30T09:48:01;15.10;99.90
7196;DHT22;3639;51.308;5.624;2023-08-30T09:50:28;15.20;99.90
7196;DHT22;3639;51.308;5.624;2023-08-30T09:52:55;15.30;99.90
7196;DHT22;3639;51.308;5.624;2023-08-30T09:55:21;15.30;99.90
7196;DHT22;3639;51.308;5.624;2023-08-30T09:57:48;15.40;99.90
7196;DHT22;3639;51.308;5.624;2023-08-30T10:00:14;15.40;99.90
7196;DHT22;3639;51.308;5.624;2023-08-30T10:02:42;15.40;99.90
7196;DHT22;3639;51.308;5.624;2023-08-30T10:05:09;15.40;99.90
7196;DHT22;3639;51.308;5.624;2023-08-30T10:07:39;15.40;99.90
7196;DHT22;3639;51.308;5.624;2023-08-30T10:10:04;15.60;99.90
7196;DHT22;3639;51.308;5.624;2023-08-30T10:12:33;15.70;99.90
7196;DHT22;3639;51.308;5.624;2023-08-30T10:14:59;15.80;99.90
7196;DHT22;3639;51.308;5.624;2023-08-30T10:17:31;15.90;99.90
7196;DHT22;3639;51.308;5.624;2023-08-30T10:19:59;16.00;99.90
7196;DHT22;3639;51.308;5.624;2023-08-30T10:22:27;16.10;99.90
7196;DHT22;3639;51.308;5.624;2023-08-30T10:24:57;16.10;99.90
7196;DHT22;3639;51.308;5.624;2023-08-30T10:27:26;16.20;99.90
7196;DHT22;3639;51.308;5.624;2023-08-30T10:29:52;16.30;99.90
7196;DHT22;3639;51.308;5.624;2023-08-30T10:32:22;16.50;99.90
7196;DHT22;3639;51.308;5.624;2023-08-30T10:34:49;16.60;99.90
7196;DHT22;3639;51.308;5.624;2023-08-30T10:37:15;16.70;99.90
7196;DHT22;3639;51.308;5.624;2023-08-30T10:39:42;16.80;99.90
7196;DHT22;3639;51.308;5.624;2023-08-30T10:42:15;16.90;99.90
7196;DHT22;3639;51.308;5.624;2023-08-30T10:44:51;17.00;99.90
7196;DHT22;3639;51.308;5.624;2023-08-30T10:49:49;17.40;99.90
7196;DHT22;3639;51.308;5.624;2023-08-30T10:52:14;17.50;99.90
7196;DHT22;3639;51.308;5.624;2023-08-30T10:54:40;17.70;99.90
7196;DHT22;3639;51.308;5.624;2023-08-30T10:57:13;17.80;99.90
7196;DHT22;3639;51.308;5.624;2023-08-30T10:59:39;17.70;99.90
7196;DHT22;3639;51.308;5.624;2023-08-30T11:02:06;17.80;99.90
7196;DHT22;3639;51.308;5.624;2023-08-30T11:04:32;17.80;99.90
7196;DHT22;3639;51.308;5.624;2023-08-30T11:06:57;17.80;99.90
7196;DHT22;3639;51.308;5.624;2023-08-30T11:09:24;17.90;99.90
7196;DHT22;3639;51.308;5.624;2023-08-30T11:11:51;18.00;99.90
7196;DHT22;3639;51.308;5.624;2023-08-30T11:14:17;18.10;99.90
7196;DHT22;3639;51.308;5.624;2023-08-30T11:16:43;18.20;99.90
7196;DHT22;3639;51.308;5.624;2023-08-30T11:19:10;18.30;99.90
7196;DHT22;3639;51.308;5.624;2023-08-30T11:21:38;18.50;99.90
7196;DHT22;3639;51.308;5.624;2023-08-30T11:24:05;18.60;99.90
7196;DHT22;3639;51.308;5.624;2023-08-30T11:26:31;18.70;99.90
7196;DHT22;3639;51.308;5.624;2023-08-30T11:28:57;18.90;99.90
7196;DHT22;3639;51.308;5.624;2023-08-30T11:31:24;19.00;99.90
7196;DHT22;3639;51.308;5.624;2023-08-30T11:33:54;18.90;99.90
7196;DHT22;3639;51.308;5.624;2023-08-30T11:36:22;19.10;99.90
7196;DHT22;3639;51.308;5.624;2023-08-30T11:38:51;19.20;99.90
7196;DHT22;3639;51.308;5.624;2023-08-30T11:41:17;19.30;99.90
7196;DHT22;3639;51.308;5.624;2023-08-30T11:43:44;19.20;99.90
7196;DHT22;3639;51.308;5.624;2023-08-30T11:46:10;18.80;99.90
7196;DHT22;3639;51.308;5.624;2023-08-30T11:48:38;18.70;99.90
7196;DHT22;3639;51.308;5.624;2023-08-30T11:51:04;18.60;99.90
7196;DHT22;3639;51.308;5.624;2023-08-30T11:53:30;18.60;99.90
7196;DHT22;3639;51.308;5.624;2023-08-30T11:55:56;18.60;99.90
7196;DHT22;3639;51.308;5.624;2023-08-30T11:58:22;18.60;99.90
7196;DHT22;3639;51.308;5.624;2023-08-30T12:00:50;18.50;99.90
7196;DHT22;3639;51.308;5.624;2023-08-30T12:03:16;18.40;99.90
7196;DHT22;3639;51.308;5.624;2023-08-30T12:05:49;18.30;99.90
7196;DHT22;3639;51.308;5.624;2023-08-30T12:08:33;18.20;99.90
7196;DHT22;3639;51.308;5.624;2023-08-30T12:10:58;18.30;99.90
7196;DHT22;3639;51.308;5.624;2023-08-30T12:13:28;18.30;99.90
7196;DHT22;3639;51.308;5.624;2023-08-30T12:15:55;18.40;99.90
7196;DHT22;3639;51.308;5.624;2023-08-30T12:18:21;18.70;99.90
7196;DHT22;3639;51.308;5.624;2023-08-30T12:20:58;18.80;99.90
7196;DHT22;3639;51.308;5.624;2023-08-30T12:23:26;18.90;99.90
7196;DHT22;3639;51.308;5.624;2023-08-30T12:26:01;19.00;99.90
7196;DHT22;3639;51.308;5.624;2023-08-30T12:28:29;19.10;99.90
7196;DHT22;3639;51.308;5.624;2023-08-30T12:30:56;19.10;99.90
7196;DHT22;3639;51.308;5.624;2023-08-30T12:33:22;19.00;99.90
7196;DHT22;3639;51.308;5.624;2023-08-30T12:35:51;18.90;99.90
7196;DHT22;3639;51.308;5.624;2023-08-30T12:38:16;18.80;99.90
7196;DHT22;3639;51.308;5.624;2023-08-30T12:40:49;18.70;99.90
7196;DHT22;3639;51.308;5.624;2023-08-30T12:43:15;18.50;99.90
7196;DHT22;3639;51.308;5.624;2023-08-30T12:45:42;18.30;99.90
7196;DHT22;3639;51.308;5.624;2023-08-30T12:48:09;18.30;99.90
7196;DHT22;3639;51.308;5.624;2023-08-30T12:50:36;18.20;99.90
7196;DHT22;3639;51.308;5.624;2023-08-30T12:53:03;18.30;99.90
7196;DHT22;3639;51.308;5.624;2023-08-30T12:55:29;18.40;99.90
7196;DHT22;3639;51.308;5.624;2023-08-30T12:57:54;18.50;99.90
7196;DHT22;3639;51.308;5.624;2023-08-30T13:00:20;18.70;99.90
7196;DHT22;3639;51.308;5.624;2023-08-30T13:02:45;18.80;99.90
7196;DHT22;3639;51.308;5.624;2023-08-30T13:05:11;18.80;99.90
7196;DHT22;3639;51.308;5.624;2023-08-30T13:07:37;18.90;99.90
7196;DHT22;3639;51.308;5.624;2023-08-30T13:10:03;18.90;99.90
7196;DHT22;3639;51.308;5.624;2023-08-30T13:12:29;18.90;99.90
7196;DHT22;3639;51.308;5.624;2023-08-30T13:14:54;19.00;99.90
7196;DHT22;3639;51.308;5.624;2023-08-30T13:17:20;19.00;99.90
7196;DHT22;3639;51.308;5.624;2023-08-30T13:19:45;19.00;99.90
7196;DHT22;3639;51.308;5.624;2023-08-30T13:22:11;19.00;99.90
7196;DHT22;3639;51.308;5.624;2023-08-30T13:24:37;18.90;99.90
7196;DHT22;3639;51.308;5.624;2023-08-30T13:27:03;18.90;99.90
7196;DHT22;3639;51.308;5.624;2023-08-30T13:29:29;19.00;99.90
7196;DHT22;3639;51.308;5.624;2023-08-30T13:31:55;19.00;99.90
7196;DHT22;3639;51.308;5.624;2023-08-30T13:34:20;19.10;99.90
7196;DHT22;3639;51.308;5.624;2023-08-30T13:36:46;19.20;99.90
7196;DHT22;3639;51.308;5.624;2023-08-30T13:39:11;19.30;99.90
7196;DHT22;3639;51.308;5.624;2023-08-30T13:41:37;19.20;99.90
7196;DHT22;3639;51.308;5.624;2023-08-30T13:44:03;19.30;99.90
7196;DHT22;3639;51.308;5.624;2023-08-30T13:46:29;19.40;99.90
7196;DHT22;3639;51.308;5.624;2023-08-30T13:48:55;19.50;99.90
7196;DHT22;3639;51.308;5.624;2023-08-30T13:51:25;19.50;99.90
7196;DHT22;3639;51.308;5.624;2023-08-30T13:53:52;19.60;99.90
7196;DHT22;3639;51.308;5.624;2023-08-30T13:56:19;19.60;99.90
7196;DHT22;3639;51.308;5.624;2023-08-30T13:58:45;19.50;99.90
7196;DHT22;3639;51.308;5.624;2023-08-30T14:01:11;19.40;99.90
7196;DHT22;3639;51.308;5.624;2023-08-30T14:03:37;19.40;99.90
7196;DHT22;3639;51.308;5.624;2023-08-30T14:06:03;19.30;99.90
7196;DHT22;3639;51.308;5.624;2023-08-30T14:08:29;19.30;99.90
7196;DHT22;3639;51.308;5.624;2023-08-30T14:10:55;19.20;99.90
7196;DHT22;3639;51.308;5.624;2023-08-30T14:13:21;19.30;99.90
7196;DHT22;3639;51.308;5.624;2023-08-30T14:15:47;19.30;99.90
7196;DHT22;3639;51.308;5.624;2023-08-30T14:18:13;19.20;99.90
7196;DHT22;3639;51.308;5.624;2023-08-30T14:20:38;19.30;99.90
7196;DHT22;3639;51.308;5.624;2023-08-30T14:23:04;19.30;99.90
7196;DHT22;3639;51.308;5.624;2023-08-30T14:25:30;19.30;99.90
7196;DHT22;3639;51.308;5.624;2023-08-30T14:27:55;19.50;99.90
7196;DHT22;3639;51.308;5.624;2023-08-30T14:30:21;19.60;99.90
7196;DHT22;3639;51.308;5.624;2023-08-30T14:32:47;19.50;99.90
7196;DHT22;3639;51.308;5.624;2023-08-30T14:35:12;19.50;99.90
7196;DHT22;3639;51.308;5.624;2023-08-30T14:37:38;19.40;99.90
7196;DHT22;3639;51.308;5.624;2023-08-30T14:40:05;19.40;99.90
7196;DHT22;3639;51.308;5.624;2023-08-30T14:42:31;19.40;99.90
7196;DHT22;3639;51.308;5.624;2023-08-30T14:44:58;19.30;99.90
7196;DHT22;3639;51.308;5.624;2023-08-30T14:47:24;19.30;99.90
7196;DHT22;3639;51.308;5.624;2023-08-30T14:49:49;19.30;99.90
7196;DHT22;3639;51.308;5.624;2023-08-30T14:52:16;19.40;99.90
7196;DHT22;3639;51.308;5.624;2023-08-30T14:54:42;19.40;99.90
7196;DHT22;3639;51.308;5.624;2023-08-30T14:57:08;19.30;99.90
7196;DHT22;3639;51.308;5.624;2023-08-30T14:59:34;19.20;99.90
7196;DHT22;3639;51.308;5.624;2023-08-30T15:02:00;19.00;99.90
7196;DHT22;3639;51.308;5.624;2023-08-30T15:04:25;18.90;99.90
7196;DHT22;3639;51.308;5.624;2023-08-30T15:06:51;18.80;99.90
7196;DHT22;3639;51.308;5.624;2023-08-30T15:09:17;18.70;99.90
7196;DHT22;3639;51.308;5.624;2023-08-30T15:11:43;18.70;99.90
7196;DHT22;3639;51.308;5.624;2023-08-30T15:14:10;18.70;99.90
7196;DHT22;3639;51.308;5.624;2023-08-30T15:16:35;18.90;99.90
7196;DHT22;3639;51.308;5.624;2023-08-30T15:19:01;19.20;99.90
7196;DHT22;3639;51.308;5.624;2023-08-30T15:21:27;19.50;99.90
7196;DHT22;3639;51.308;5.624;2023-08-30T15:23:52;19.70;99.90
7196;DHT22;3639;51.308;5.624;2023-08-30T15:26:18;19.90;99.90
7196;DHT22;3639;51.308;5.624;2023-08-30T15:28:49;19.90;99.90
7196;DHT22;3639;51.308;5.624;2023-08-30T15:31:16;19.80;99.90
7196;DHT22;3639;51.308;5.624;2023-08-30T15:33:44;19.70;99.90
7196;DHT22;3639;51.308;5.624;2023-08-30T15:36:10;19.40;99.90
7196;DHT22;3639;51.308;5.624;2023-08-30T15:38:36;19.10;99.90
7196;DHT22;3639;51.308;5.624;2023-08-30T15:41:08;19.00;99.90
7196;DHT22;3639;51.308;5.624;2023-08-30T15:43:34;19.00;99.90
7196;DHT22;3639;51.308;5.624;2023-08-30T15:46:07;19.00;99.90
7196;DHT22;3639;51.308;5.624;2023-08-30T15:48:32;19.00;99.90
7196;DHT22;3639;51.308;5.624;2023-08-30T15:50:58;18.90;99.90
7196;DHT22;3639;51.308;5.624;2023-08-30T15:53:24;18.80;99.90
7196;DHT22;3639;51.308;5.624;2023-08-30T15:55:49;18.70;99.90
7196;DHT22;3639;51.308;5.624;2023-08-30T15:58:15;18.60;99.90
7196;DHT22;3639;51.308;5.624;2023-08-30T16:00:42;18.60;99.90
7196;DHT22;3639;51.308;5.624;2023-08-30T16:03:10;18.60;99.90
7196;DHT22;3639;51.308;5.624;2023-08-30T16:05:36;18.70;99.90
7196;DHT22;3639;51.308;5.624;2023-08-30T16:08:03;18.70;99.90